Norton, OH

7:25 AM EST on December 03, 2016 (GMT -0500)
Knollbrook | | Change Station

Elev 1073 ft 41.02 °N, 81.68 °W | Updated 2 seconds ago

Overcast
Overcast
34.8 °F
Feels Like 35 °F
N
2.0
Wind Variable Wind from NW
Gusts 2.0 mph

Today
High -- | Low -- °F
--% Chance of Precip.
Yesterday
High -- | Low -- °F
Precip. -- in
Pressure 30.30 in
Visibility 9.0 miles
Clouds Overcast 1800 ft
Windchill 35 °F
Dew Point 30 °F
Humidity 83%
Rainfall 0.00 in
Snow Depth Not available.
7:34 AM 4:58 PM
Waxing Crescent, 14% visible
METAR KAKR 031154Z AUTO 26008KT 9SM OVC018 02/M01 A3027 RMK AO2 SLP258 T00221011 10028 20022 53010
Pressure 30.30 in
Visibility 9.0 miles
Clouds Overcast 1800 ft
Windchill 35 °F
Dew Point 30 °F
Humidity 83%
Rainfall 0.00 in
Snow Depth Not available.
7:34 AM 4:58 PM
Waxing Crescent, 14% visible
METAR KAKR 031154Z AUTO 26008KT 9SM OVC018 02/M01 A3027 RMK AO2 SLP258 T00221011 10028 20022 53010

10-Day Weather Forecast

Almanac

Astronomy

Dec. 03, 2016 Rise Set
Actual Time
Civil Twilight
Nautical Twilight
Astronomical Twilight
Moon
Length of Visible Light
Length of Day
Tomorrow will be .
, % of the Moon is Illuminated

Today's Extremes

State Highs State Lows

Community

WunderPhotos

Upload Photos

1,955,441 photos uploaded!

WunderBlog® & News

Nearby

Air Quality

  Air Quality AQ Index Pollutant
Not available.

Snow Depth

Station Depth Elevation

Earthquake Activity

City Distance Mag. Time & Date
Minimum magnitude displayed is 2.5.

Coastal Water Temperatures

Place Temperature

Stations

Nearby Weather Stations

Station Location Temp. Windchill Dew Point Humidity Wind Precip. Elev Updated Type
                   

Watches & Warnings

There are currently no watches in effect.